sensor_id;sensor_type;location;lat;lon;timestamp;P1;durP1;ratioP1;P2;durP2;ratioP2
58974;SDS011;44751;52.236;5.178;2022-07-23T00:00:41;2.70;;;2.05;;
58974;SDS011;44751;52.236;5.178;2022-07-23T00:03:08;5.38;;;2.30;;
58974;SDS011;44751;52.236;5.178;2022-07-23T00:05:43;3.58;;;2.17;;
58974;SDS011;44751;52.236;5.178;2022-07-23T00:08:10;4.10;;;2.28;;
58974;SDS011;44751;52.236;5.178;2022-07-23T00:10:36;2.78;;;1.95;;
58974;SDS011;44751;52.236;5.178;2022-07-23T00:13:03;3.47;;;1.92;;
58974;SDS011;44751;52.236;5.178;2022-07-23T00:15:30;4.93;;;2.00;;
58974;SDS011;44751;52.236;5.178;2022-07-23T00:17:56;2.60;;;2.20;;
58974;SDS011;44751;52.236;5.178;2022-07-23T00:20:29;3.28;;;2.40;;
58974;SDS011;44751;52.236;5.178;2022-07-23T00:22:55;4.05;;;2.40;;
58974;SDS011;44751;52.236;5.178;2022-07-23T00:25:22;4.13;;;2.35;;
58974;SDS011;44751;52.236;5.178;2022-07-23T00:27:50;3.60;;;2.25;;
58974;SDS011;44751;52.236;5.178;2022-07-23T00:30:16;3.75;;;2.42;;
58974;SDS011;44751;52.236;5.178;2022-07-23T00:32:50;5.68;;;2.35;;
58974;SDS011;44751;52.236;5.178;2022-07-23T00:35:23;5.22;;;2.45;;
58974;SDS011;44751;52.236;5.178;2022-07-23T00:37:52;3.58;;;2.10;;
58974;SDS011;44751;52.236;5.178;2022-07-23T00:40:18;3.35;;;2.70;;
58974;SDS011;44751;52.236;5.178;2022-07-23T00:42:45;3.53;;;2.50;;
58974;SDS011;44751;52.236;5.178;2022-07-23T00:45:12;3.72;;;2.40;;
58974;SDS011;44751;52.236;5.178;2022-07-23T00:47:39;3.28;;;2.50;;
58974;SDS011;44751;52.236;5.178;2022-07-23T00:50:24;2.97;;;2.22;;
58974;SDS011;44751;52.236;5.178;2022-07-23T00:52:54;4.07;;;2.30;;
58974;SDS011;44751;52.236;5.178;2022-07-23T00:55:21;4.68;;;2.47;;
58974;SDS011;44751;52.236;5.178;2022-07-23T00:57:48;2.95;;;2.40;;
58974;SDS011;44751;52.236;5.178;2022-07-23T01:00:16;5.03;;;2.40;;
58974;SDS011;44751;52.236;5.178;2022-07-23T01:02:42;2.88;;;2.45;;
58974;SDS011;44751;52.236;5.178;2022-07-23T01:05:15;3.10;;;2.35;;
58974;SDS011;44751;52.236;5.178;2022-07-23T01:07:42;2.20;;;2.00;;
58974;SDS011;44751;52.236;5.178;2022-07-23T01:10:10;2.72;;;2.10;;
58974;SDS011;44751;52.236;5.178;2022-07-23T01:12:50;3.10;;;1.98;;
58974;SDS011;44751;52.236;5.178;2022-07-23T01:15:16;2.33;;;2.13;;
58974;SDS011;44751;52.236;5.178;2022-07-23T01:17:43;3.70;;;2.50;;
58974;SDS011;44751;52.236;5.178;2022-07-23T01:20:15;4.43;;;2.40;;
58974;SDS011;44751;52.236;5.178;2022-07-23T01:22:42;2.47;;;2.28;;
58974;SDS011;44751;52.236;5.178;2022-07-23T01:25:09;2.75;;;2.03;;
58974;SDS011;44751;52.236;5.178;2022-07-23T01:27:36;3.10;;;2.33;;
58974;SDS011;44751;52.236;5.178;2022-07-23T01:30:18;4.45;;;2.08;;
58974;SDS011;44751;52.236;5.178;2022-07-23T01:32:44;2.97;;;2.05;;
58974;SDS011;44751;52.236;5.178;2022-07-23T01:35:23;3.97;;;2.47;;
58974;SDS011;44751;52.236;5.178;2022-07-23T01:37:49;2.35;;;2.15;;
58974;SDS011;44751;52.236;5.178;2022-07-23T01:40:18;2.65;;;2.20;;
58974;SDS011;44751;52.236;5.178;2022-07-23T01:42:45;4.53;;;2.03;;
58974;SDS011;44751;52.236;5.178;2022-07-23T01:45:11;3.22;;;2.28;;
58974;SDS011;44751;52.236;5.178;2022-07-23T01:47:37;2.40;;;2.20;;
58974;SDS011;44751;52.236;5.178;2022-07-23T01:50:13;3.03;;;2.15;;
58974;SDS011;44751;52.236;5.178;2022-07-23T01:52:39;3.33;;;2.25;;
58974;SDS011;44751;52.236;5.178;2022-07-23T01:55:06;2.80;;;2.10;;
58974;SDS011;44751;52.236;5.178;2022-07-23T01:57:33;3.45;;;2.00;;
58974;SDS011;44751;52.236;5.178;2022-07-23T02:00:00;3.42;;;2.10;;
58974;SDS011;44751;52.236;5.178;2022-07-23T02:02:26;3.17;;;2.03;;
58974;SDS011;44751;52.236;5.178;2022-07-23T02:04:59;2.63;;;2.20;;
58974;SDS011;44751;52.236;5.178;2022-07-23T02:07:28;2.58;;;2.10;;
58974;SDS011;44751;52.236;5.178;2022-07-23T02:09:55;2.75;;;2.25;;
58974;SDS011;44751;52.236;5.178;2022-07-23T02:12:21;4.60;;;2.28;;
58974;SDS011;44751;52.236;5.178;2022-07-23T02:14:48;3.83;;;2.30;;
58974;SDS011;44751;52.236;5.178;2022-07-23T02:17:14;4.35;;;2.10;;
58974;SDS011;44751;52.236;5.178;2022-07-23T02:19:41;2.40;;;1.95;;
58974;SDS011;44751;52.236;5.178;2022-07-23T02:22:13;2.40;;;1.90;;
58974;SDS011;44751;52.236;5.178;2022-07-23T02:24:43;3.72;;;2.15;;
58974;SDS011;44751;52.236;5.178;2022-07-23T02:27:09;3.33;;;2.30;;
58974;SDS011;44751;52.236;5.178;2022-07-23T02:29:36;4.85;;;1.98;;
58974;SDS011;44751;52.236;5.178;2022-07-23T02:32:02;2.47;;;2.28;;
58974;SDS011;44751;52.236;5.178;2022-07-23T02:34:29;3.75;;;2.10;;
58974;SDS011;44751;52.236;5.178;2022-07-23T02:37:02;3.58;;;2.17;;
58974;SDS011;44751;52.236;5.178;2022-07-23T02:39:28;3.92;;;2.47;;
58974;SDS011;44751;52.236;5.178;2022-07-23T02:41:55;2.30;;;2.10;;
58974;SDS011;44751;52.236;5.178;2022-07-23T02:44:21;2.83;;;2.15;;
58974;SDS011;44751;52.236;5.178;2022-07-23T02:46:48;3.58;;;2.33;;
58974;SDS011;44751;52.236;5.178;2022-07-23T02:49:14;6.22;;;2.10;;
58974;SDS011;44751;52.236;5.178;2022-07-23T02:51:53;3.35;;;1.98;;
58974;SDS011;44751;52.236;5.178;2022-07-23T02:54:19;4.05;;;1.90;;
58974;SDS011;44751;52.236;5.178;2022-07-23T02:56:46;2.42;;;2.10;;
58974;SDS011;44751;52.236;5.178;2022-07-23T02:59:12;2.25;;;2.00;;
58974;SDS011;44751;52.236;5.178;2022-07-23T03:01:39;2.58;;;2.38;;
58974;SDS011;44751;52.236;5.178;2022-07-23T03:04:05;3.63;;;1.83;;
58974;SDS011;44751;52.236;5.178;2022-07-23T03:06:38;2.22;;;2.00;;
58974;SDS011;44751;52.236;5.178;2022-07-23T03:09:05;2.75;;;2.00;;
58974;SDS011;44751;52.236;5.178;2022-07-23T03:11:32;2.47;;;1.80;;
58974;SDS011;44751;52.236;5.178;2022-07-23T03:13:58;2.00;;;1.70;;
58974;SDS011;44751;52.236;5.178;2022-07-23T03:16:25;1.98;;;1.88;;
58974;SDS011;44751;52.236;5.178;2022-07-23T03:18:51;2.20;;;2.00;;
58974;SDS011;44751;52.236;5.178;2022-07-23T03:21:30;2.97;;;1.90;;
58974;SDS011;44751;52.236;5.178;2022-07-23T03:24:06;2.40;;;2.10;;
58974;SDS011;44751;52.236;5.178;2022-07-23T03:26:34;3.65;;;2.30;;
58974;SDS011;44751;52.236;5.178;2022-07-23T03:29:01;2.22;;;1.98;;
58974;SDS011;44751;52.236;5.178;2022-07-23T03:31:29;2.90;;;1.92;;
58974;SDS011;44751;52.236;5.178;2022-07-23T03:33:57;2.15;;;1.80;;
58974;SDS011;44751;52.236;5.178;2022-07-23T03:36:33;2.65;;;2.35;;
58974;SDS011;44751;52.236;5.178;2022-07-23T03:39:01;2.55;;;2.00;;
58974;SDS011;44751;52.236;5.178;2022-07-23T03:41:28;2.08;;;1.88;;
58974;SDS011;44751;52.236;5.178;2022-07-23T03:43:55;2.42;;;1.88;;
58974;SDS011;44751;52.236;5.178;2022-07-23T03:46:35;2.35;;;2.00;;
58974;SDS011;44751;52.236;5.178;2022-07-23T03:49:21;3.30;;;2.15;;
58974;SDS011;44751;52.236;5.178;2022-07-23T03:51:54;2.72;;;2.30;;
58974;SDS011;44751;52.236;5.178;2022-07-23T03:54:36;2.90;;;2.00;;
58974;SDS011;44751;52.236;5.178;2022-07-23T03:57:12;4.38;;;1.92;;
58974;SDS011;44751;52.236;5.178;2022-07-23T03:59:39;3.75;;;2.13;;
58974;SDS011;44751;52.236;5.178;2022-07-23T04:02:12;3.75;;;2.47;;
58974;SDS011;44751;52.236;5.178;2022-07-23T04:04:47;3.58;;;2.38;;
58974;SDS011;44751;52.236;5.178;2022-07-23T04:07:25;3.38;;;2.03;;
58974;SDS011;44751;52.236;5.178;2022-07-23T04:09:51;2.20;;;2.00;;
58974;SDS011;44751;52.236;5.178;2022-07-23T04:12:18;2.63;;;2.00;;
58974;SDS011;44751;52.236;5.178;2022-07-23T04:14:45;2.90;;;2.08;;
58974;SDS011;44751;52.236;5.178;2022-07-23T04:17:12;3.83;;;2.35;;
58974;SDS011;44751;52.236;5.178;2022-07-23T04:19:39;2.88;;;2.60;;
58974;SDS011;44751;52.236;5.178;2022-07-23T04:22:20;3.65;;;2.10;;
58974;SDS011;44751;52.236;5.178;2022-07-23T04:24:47;3.17;;;2.10;;
58974;SDS011;44751;52.236;5.178;2022-07-23T04:27:14;2.80;;;2.05;;
58974;SDS011;44751;52.236;5.178;2022-07-23T04:29:40;2.72;;;2.10;;
58974;SDS011;44751;52.236;5.178;2022-07-23T04:32:07;3.53;;;2.20;;
58974;SDS011;44751;52.236;5.178;2022-07-23T04:34:33;3.50;;;2.10;;
58974;SDS011;44751;52.236;5.178;2022-07-23T04:37:07;3.08;;;2.00;;
58974;SDS011;44751;52.236;5.178;2022-07-23T04:39:37;2.55;;;1.95;;
58974;SDS011;44751;52.236;5.178;2022-07-23T04:42:05;2.78;;;2.10;;
58974;SDS011;44751;52.236;5.178;2022-07-23T04:44:32;4.03;;;2.00;;
58974;SDS011;44751;52.236;5.178;2022-07-23T04:46:59;2.88;;;2.20;;
58974;SDS011;44751;52.236;5.178;2022-07-23T04:49:26;4.47;;;2.30;;
58974;SDS011;44751;52.236;5.178;2022-07-23T04:52:14;4.00;;;2.05;;
58974;SDS011;44751;52.236;5.178;2022-07-23T04:57:16;3.97;;;2.10;;
58974;SDS011;44751;52.236;5.178;2022-07-23T04:59:43;6.00;;;2.50;;
58974;SDS011;44751;52.236;5.178;2022-07-23T05:02:09;2.85;;;2.40;;
58974;SDS011;44751;52.236;5.178;2022-07-23T05:04:36;3.72;;;2.40;;
58974;SDS011;44751;52.236;5.178;2022-07-23T05:07:12;2.83;;;2.30;;
58974;SDS011;44751;52.236;5.178;2022-07-23T05:09:39;2.90;;;2.60;;
58974;SDS011;44751;52.236;5.178;2022-07-23T05:12:06;6.38;;;3.33;;
58974;SDS011;44751;52.236;5.178;2022-07-23T05:14:32;5.70;;;2.85;;
58974;SDS011;44751;52.236;5.178;2022-07-23T05:16:59;4.57;;;2.97;;
58974;SDS011;44751;52.236;5.178;2022-07-23T05:19:25;4.25;;;2.50;;
58974;SDS011;44751;52.236;5.178;2022-07-23T05:22:01;5.00;;;2.58;;
58974;SDS011;44751;52.236;5.178;2022-07-23T05:24:28;4.45;;;2.00;;
58974;SDS011;44751;52.236;5.178;2022-07-23T05:26:54;4.72;;;2.20;;
58974;SDS011;44751;52.236;5.178;2022-07-23T05:29:20;3.05;;;2.15;;
58974;SDS011;44751;52.236;5.178;2022-07-23T05:31:47;4.65;;;1.98;;
58974;SDS011;44751;52.236;5.178;2022-07-23T05:34:13;4.28;;;1.80;;
58974;SDS011;44751;52.236;5.178;2022-07-23T05:36:46;3.05;;;1.70;;
58974;SDS011;44751;52.236;5.178;2022-07-23T05:39:16;1.85;;;1.60;;
58974;SDS011;44751;52.236;5.178;2022-07-23T05:41:42;3.30;;;1.90;;
58974;SDS011;44751;52.236;5.178;2022-07-23T05:44:09;4.07;;;1.90;;
58974;SDS011;44751;52.236;5.178;2022-07-23T05:46:35;2.30;;;1.80;;
58974;SDS011;44751;52.236;5.178;2022-07-23T05:49:02;2.97;;;1.73;;
58974;SDS011;44751;52.236;5.178;2022-07-23T05:51:39;5.65;;;2.10;;
58974;SDS011;44751;52.236;5.178;2022-07-23T05:54:06;3.65;;;1.60;;
58974;SDS011;44751;52.236;5.178;2022-07-23T05:56:32;2.70;;;1.75;;
58974;SDS011;44751;52.236;5.178;2022-07-23T05:58:59;1.73;;;1.55;;
58974;SDS011;44751;52.236;5.178;2022-07-23T06:01:25;4.47;;;1.73;;
58974;SDS011;44751;52.236;5.178;2022-07-23T06:11:30;4.68;;;1.40;;
58974;SDS011;44751;52.236;5.178;2022-07-23T06:13:57;3.42;;;1.67;;
58974;SDS011;44751;52.236;5.178;2022-07-23T06:16:33;3.08;;;1.60;;
58974;SDS011;44751;52.236;5.178;2022-07-23T06:18:59;2.38;;;1.67;;
58974;SDS011;44751;52.236;5.178;2022-07-23T06:21:26;3.25;;;1.30;;
58974;SDS011;44751;52.236;5.178;2022-07-23T06:24:01;2.30;;;1.40;;
58974;SDS011;44751;52.236;5.178;2022-07-23T06:26:36;2.67;;;1.50;;
58974;SDS011;44751;52.236;5.178;2022-07-23T06:29:03;4.80;;;1.35;;
58974;SDS011;44751;52.236;5.178;2022-07-23T06:31:30;3.65;;;2.03;;
58974;SDS011;44751;52.236;5.178;2022-07-23T06:33:56;5.20;;;2.45;;
58974;SDS011;44751;52.236;5.178;2022-07-23T06:36:23;4.43;;;1.73;;
58974;SDS011;44751;52.236;5.178;2022-07-23T06:38:56;4.45;;;1.90;;
58974;SDS011;44751;52.236;5.178;2022-07-23T06:41:44;4.53;;;2.17;;
58974;SDS011;44751;52.236;5.178;2022-07-23T06:44:11;4.22;;;1.70;;
58974;SDS011;44751;52.236;5.178;2022-07-23T06:46:38;3.50;;;1.38;;
58974;SDS011;44751;52.236;5.178;2022-07-23T06:49:08;1.92;;;1.08;;
58974;SDS011;44751;52.236;5.178;2022-07-23T06:51:34;4.18;;;0.88;;
58974;SDS011;44751;52.236;5.178;2022-07-23T06:57:02;1.48;;;1.00;;
58974;SDS011;44751;52.236;5.178;2022-07-23T06:59:29;2.17;;;1.00;;
58974;SDS011;44751;52.236;5.178;2022-07-23T07:01:59;2.20;;;1.10;;
58974;SDS011;44751;52.236;5.178;2022-07-23T07:04:25;4.15;;;1.40;;
58974;SDS011;44751;52.236;5.178;2022-07-23T07:06:54;1.27;;;0.93;;
58974;SDS011;44751;52.236;5.178;2022-07-23T07:09:35;1.40;;;0.90;;
58974;SDS011;44751;52.236;5.178;2022-07-23T07:12:01;1.58;;;1.00;;
58974;SDS011;44751;52.236;5.178;2022-07-23T07:14:28;3.10;;;1.20;;
58974;SDS011;44751;52.236;5.178;2022-07-23T07:16:55;1.30;;;0.95;;
58974;SDS011;44751;52.236;5.178;2022-07-23T07:19:22;3.00;;;1.15;;
58974;SDS011;44751;52.236;5.178;2022-07-23T07:22:11;1.75;;;1.00;;
58974;SDS011;44751;52.236;5.178;2022-07-23T11:10:06;2.28;;;0.88;;
58974;SDS011;44751;52.236;5.178;2022-07-23T11:16:10;1.20;;;0.80;;
58974;SDS011;44751;52.236;5.178;2022-07-23T15:15:20;2.42;;;1.95;;
58974;SDS011;44751;52.236;5.178;2022-07-23T15:17:49;3.70;;;2.05;;
58974;SDS011;44751;52.236;5.178;2022-07-23T15:20:16;2.67;;;2.28;;
58974;SDS011;44751;52.236;5.178;2022-07-23T15:22:43;2.47;;;1.80;;
58974;SDS011;44751;52.236;5.178;2022-07-23T15:25:13;3.08;;;1.92;;
58974;SDS011;44751;52.236;5.178;2022-07-23T15:27:45;3.53;;;2.30;;
58974;SDS011;44751;52.236;5.178;2022-07-23T15:30:18;2.45;;;2.05;;
58974;SDS011;44751;52.236;5.178;2022-07-23T15:32:44;2.97;;;2.00;;
58974;SDS011;44751;52.236;5.178;2022-07-23T15:35:11;3.38;;;2.30;;
58974;SDS011;44751;52.236;5.178;2022-07-23T15:37:37;3.80;;;3.00;;
58974;SDS011;44751;52.236;5.178;2022-07-23T15:40:04;3.80;;;2.78;;
58974;SDS011;44751;52.236;5.178;2022-07-23T15:42:31;5.30;;;3.40;;
58974;SDS011;44751;52.236;5.178;2022-07-23T15:44:58;3.65;;;2.80;;
58974;SDS011;44751;52.236;5.178;2022-07-23T15:47:24;4.70;;;3.47;;
58974;SDS011;44751;52.236;5.178;2022-07-23T15:49:51;3.95;;;2.90;;
58974;SDS011;44751;52.236;5.178;2022-07-23T15:52:17;3.20;;;2.90;;
58974;SDS011;44751;52.236;5.178;2022-07-23T15:54:43;3.53;;;2.92;;
58974;SDS011;44751;52.236;5.178;2022-07-23T15:57:10;5.20;;;2.92;;
58974;SDS011;44751;52.236;5.178;2022-07-23T15:59:46;3.25;;;2.50;;
58974;SDS011;44751;52.236;5.178;2022-07-23T16:02:13;5.25;;;4.25;;
58974;SDS011;44751;52.236;5.178;2022-07-23T16:04:40;3.35;;;3.05;;
58974;SDS011;44751;52.236;5.178;2022-07-23T16:07:07;4.00;;;3.55;;
58974;SDS011;44751;52.236;5.178;2022-07-23T16:09:33;3.65;;;3.20;;
58974;SDS011;44751;52.236;5.178;2022-07-23T16:12:00;4.38;;;3.90;;
58974;SDS011;44751;52.236;5.178;2022-07-23T16:14:28;3.30;;;2.88;;
58974;SDS011;44751;52.236;5.178;2022-07-23T16:16:55;4.22;;;3.20;;
58974;SDS011;44751;52.236;5.178;2022-07-23T16:19:21;3.75;;;2.90;;
58974;SDS011;44751;52.236;5.178;2022-07-23T16:21:48;3.40;;;3.10;;
58974;SDS011;44751;52.236;5.178;2022-07-23T16:24:14;4.22;;;3.30;;
58974;SDS011;44751;52.236;5.178;2022-07-23T16:26:41;3.63;;;3.30;;
58974;SDS011;44751;52.236;5.178;2022-07-23T16:29:16;4.30;;;3.13;;
58974;SDS011;44751;52.236;5.178;2022-07-23T16:31:42;3.92;;;2.90;;
58974;SDS011;44751;52.236;5.178;2022-07-23T16:34:09;6.07;;;3.80;;
58974;SDS011;44751;52.236;5.178;2022-07-23T16:36:37;4.32;;;3.22;;
58974;SDS011;44751;52.236;5.178;2022-07-23T16:39:04;5.68;;;3.75;;
58974;SDS011;44751;52.236;5.178;2022-07-23T16:41:31;3.65;;;3.35;;
58974;SDS011;44751;52.236;5.178;2022-07-23T16:44:10;3.55;;;3.25;;
58974;SDS011;44751;52.236;5.178;2022-07-23T16:46:36;4.15;;;3.33;;
58974;SDS011;44751;52.236;5.178;2022-07-23T16:49:03;4.10;;;3.20;;
58974;SDS011;44751;52.236;5.178;2022-07-23T16:51:34;4.18;;;3.53;;
58974;SDS011;44751;52.236;5.178;2022-07-23T16:54:04;3.95;;;3.47;;
58974;SDS011;44751;52.236;5.178;2022-07-23T16:56:30;5.35;;;3.53;;
58974;SDS011;44751;52.236;5.178;2022-07-23T16:59:12;4.13;;;2.92;;
58974;SDS011;44751;52.236;5.178;2022-07-23T17:01:39;4.00;;;3.17;;
58974;SDS011;44751;52.236;5.178;2022-07-23T17:04:05;3.72;;;3.03;;
58974;SDS011;44751;52.236;5.178;2022-07-23T17:06:32;4.88;;;3.83;;
58974;SDS011;44751;52.236;5.178;2022-07-23T17:09:22;4.30;;;3.20;;
58974;SDS011;44751;52.236;5.178;2022-07-23T17:11:48;3.83;;;3.15;;
58974;SDS011;44751;52.236;5.178;2022-07-23T17:14:21;3.65;;;3.10;;
58974;SDS011;44751;52.236;5.178;2022-07-23T17:16:50;4.35;;;3.50;;
58974;SDS011;44751;52.236;5.178;2022-07-23T17:19:17;4.78;;;3.20;;
58974;SDS011;44751;52.236;5.178;2022-07-23T17:21:55;4.45;;;3.50;;
58974;SDS011;44751;52.236;5.178;2022-07-23T17:24:22;3.30;;;2.92;;
58974;SDS011;44751;52.236;5.178;2022-07-23T17:26:49;3.30;;;3.00;;
58974;SDS011;44751;52.236;5.178;2022-07-23T17:29:16;3.00;;;2.70;;
58974;SDS011;44751;52.236;5.178;2022-07-23T17:31:42;4.45;;;3.58;;
58974;SDS011;44751;52.236;5.178;2022-07-23T17:34:09;5.65;;;3.20;;
58974;SDS011;44751;52.236;5.178;2022-07-23T17:36:36;4.82;;;3.10;;
58974;SDS011;44751;52.236;5.178;2022-07-23T17:39:03;3.97;;;3.45;;
58974;SDS011;44751;52.236;5.178;2022-07-23T17:41:30;3.13;;;2.83;;
58974;SDS011;44751;52.236;5.178;2022-07-23T17:43:57;4.38;;;3.08;;
58974;SDS011;44751;52.236;5.178;2022-07-23T17:46:25;4.15;;;3.13;;
58974;SDS011;44751;52.236;5.178;2022-07-23T17:48:53;3.85;;;3.10;;
58974;SDS011;44751;52.236;5.178;2022-07-23T17:51:20;3.67;;;3.30;;
58974;SDS011;44751;52.236;5.178;2022-07-23T17:53:46;4.38;;;3.35;;
58974;SDS011;44751;52.236;5.178;2022-07-23T17:56:13;3.83;;;3.40;;
58974;SDS011;44751;52.236;5.178;2022-07-23T17:58:40;6.05;;;3.47;;
58974;SDS011;44751;52.236;5.178;2022-07-23T18:01:06;4.70;;;3.35;;
58974;SDS011;44751;52.236;5.178;2022-07-23T18:03:32;4.68;;;3.15;;
58974;SDS011;44751;52.236;5.178;2022-07-23T18:06:01;3.33;;;2.95;;
58974;SDS011;44751;52.236;5.178;2022-07-23T18:08:41;4.75;;;3.40;;
58974;SDS011;44751;52.236;5.178;2022-07-23T18:11:18;3.40;;;3.10;;
58974;SDS011;44751;52.236;5.178;2022-07-23T18:13:46;4.53;;;3.10;;
58974;SDS011;44751;52.236;5.178;2022-07-23T18:18:46;3.40;;;3.10;;
58974;SDS011;44751;52.236;5.178;2022-07-23T18:21:18;3.92;;;3.35;;
58974;SDS011;44751;52.236;5.178;2022-07-23T18:23:48;3.25;;;2.95;;
58974;SDS011;44751;52.236;5.178;2022-07-23T18:26:25;4.47;;;3.50;;
58974;SDS011;44751;52.236;5.178;2022-07-23T18:28:54;5.32;;;3.13;;
58974;SDS011;44751;52.236;5.178;2022-07-23T18:31:23;2.70;;;2.50;;
58974;SDS011;44751;52.236;5.178;2022-07-23T18:33:57;4.28;;;3.42;;
58974;SDS011;44751;52.236;5.178;2022-07-23T18:36:28;3.38;;;3.08;;
58974;SDS011;44751;52.236;5.178;2022-07-23T18:39:06;3.58;;;3.20;;
58974;SDS011;44751;52.236;5.178;2022-07-23T18:41:38;5.30;;;3.20;;
58974;SDS011;44751;52.236;5.178;2022-07-23T18:44:05;4.32;;;3.30;;
58974;SDS011;44751;52.236;5.178;2022-07-23T18:46:40;4.50;;;3.28;;
58974;SDS011;44751;52.236;5.178;2022-07-23T18:49:14;4.43;;;3.22;;
58974;SDS011;44751;52.236;5.178;2022-07-23T18:51:42;4.65;;;3.40;;
58974;SDS011;44751;52.236;5.178;2022-07-23T18:54:11;4.32;;;3.00;;
58974;SDS011;44751;52.236;5.178;2022-07-23T18:56:40;4.95;;;3.45;;
58974;SDS011;44751;52.236;5.178;2022-07-23T18:59:10;3.30;;;3.00;;
58974;SDS011;44751;52.236;5.178;2022-07-23T19:01:46;3.20;;;2.80;;
58974;SDS011;44751;52.236;5.178;2022-07-23T19:04:16;4.13;;;3.05;;
58974;SDS011;44751;52.236;5.178;2022-07-23T19:06:42;5.20;;;3.20;;
58974;SDS011;44751;52.236;5.178;2022-07-23T19:09:09;5.43;;;3.95;;
58974;SDS011;44751;52.236;5.178;2022-07-23T19:11:37;5.93;;;4.35;;
58974;SDS011;44751;52.236;5.178;2022-07-23T19:14:06;5.70;;;3.80;;
58974;SDS011;44751;52.236;5.178;2022-07-23T19:16:33;5.55;;;4.78;;
58974;SDS011;44751;52.236;5.178;2022-07-23T19:18:59;7.93;;;4.47;;
58974;SDS011;44751;52.236;5.178;2022-07-23T19:21:35;4.55;;;4.10;;
58974;SDS011;44751;52.236;5.178;2022-07-23T19:24:11;4.93;;;3.88;;
58974;SDS011;44751;52.236;5.178;2022-07-23T19:26:38;4.03;;;3.63;;
58974;SDS011;44751;52.236;5.178;2022-07-23T19:29:13;3.65;;;3.35;;
58974;SDS011;44751;52.236;5.178;2022-07-23T19:31:43;4.50;;;3.53;;
58974;SDS011;44751;52.236;5.178;2022-07-23T19:34:09;3.90;;;3.45;;
58974;SDS011;44751;52.236;5.178;2022-07-23T19:36:38;5.13;;;3.28;;
58974;SDS011;44751;52.236;5.178;2022-07-23T19:39:07;3.63;;;3.33;;
58974;SDS011;44751;52.236;5.178;2022-07-23T19:41:38;5.97;;;2.95;;
58974;SDS011;44751;52.236;5.178;2022-07-23T19:44:07;5.80;;;3.75;;
58974;SDS011;44751;52.236;5.178;2022-07-23T19:46:34;3.72;;;3.38;;
58974;SDS011;44751;52.236;5.178;2022-07-23T19:49:00;5.47;;;3.20;;
58974;SDS011;44751;52.236;5.178;2022-07-23T19:51:29;4.97;;;3.70;;
58974;SDS011;44751;52.236;5.178;2022-07-23T19:53:56;5.03;;;4.20;;
58974;SDS011;44751;52.236;5.178;2022-07-23T19:56:23;5.32;;;3.60;;
58974;SDS011;44751;52.236;5.178;2022-07-23T19:58:49;5.22;;;3.85;;
58974;SDS011;44751;52.236;5.178;2022-07-23T20:01:16;3.92;;;3.53;;
58974;SDS011;44751;52.236;5.178;2022-07-23T20:03:51;5.70;;;3.70;;
58974;SDS011;44751;52.236;5.178;2022-07-23T20:06:18;5.15;;;3.75;;
58974;SDS011;44751;52.236;5.178;2022-07-23T20:08:45;4.45;;;3.35;;
58974;SDS011;44751;52.236;5.178;2022-07-23T20:11:11;4.63;;;3.80;;
58974;SDS011;44751;52.236;5.178;2022-07-23T20:13:37;4.00;;;3.60;;
58974;SDS011;44751;52.236;5.178;2022-07-23T20:16:05;5.22;;;3.75;;
58974;SDS011;44751;52.236;5.178;2022-07-23T20:18:32;4.53;;;4.10;;
58974;SDS011;44751;52.236;5.178;2022-07-23T20:20:59;5.93;;;4.60;;
58974;SDS011;44751;52.236;5.178;2022-07-23T20:23:25;6.20;;;4.50;;
58974;SDS011;44751;52.236;5.178;2022-07-23T20:25:52;5.75;;;5.03;;
58974;SDS011;44751;52.236;5.178;2022-07-23T20:28:19;7.43;;;4.75;;
58974;SDS011;44751;52.236;5.178;2022-07-23T20:30:46;5.50;;;5.00;;
58974;SDS011;44751;52.236;5.178;2022-07-23T20:33:16;5.10;;;4.60;;
58974;SDS011;44751;52.236;5.178;2022-07-23T20:35:44;6.00;;;4.38;;
58974;SDS011;44751;52.236;5.178;2022-07-23T20:38:11;4.55;;;4.15;;
58974;SDS011;44751;52.236;5.178;2022-07-23T20:40:39;5.13;;;4.63;;
58974;SDS011;44751;52.236;5.178;2022-07-23T20:43:06;6.43;;;4.50;;
58974;SDS011;44751;52.236;5.178;2022-07-23T20:45:35;5.10;;;4.60;;
58974;SDS011;44751;52.236;5.178;2022-07-23T20:48:02;5.97;;;5.05;;
58974;SDS011;44751;52.236;5.178;2022-07-23T20:50:29;4.97;;;4.47;;
58974;SDS011;44751;52.236;5.178;2022-07-23T20:52:55;7.25;;;5.50;;
58974;SDS011;44751;52.236;5.178;2022-07-23T20:55:22;5.40;;;4.90;;
58974;SDS011;44751;52.236;5.178;2022-07-23T20:57:48;6.65;;;4.95;;
58974;SDS011;44751;52.236;5.178;2022-07-23T21:00:15;6.00;;;4.63;;
58974;SDS011;44751;52.236;5.178;2022-07-23T21:02:43;5.78;;;4.97;;
58974;SDS011;44751;52.236;5.178;2022-07-23T21:05:09;6.00;;;5.13;;
58974;SDS011;44751;52.236;5.178;2022-07-23T21:07:36;6.70;;;5.38;;
58974;SDS011;44751;52.236;5.178;2022-07-23T21:10:03;5.68;;;5.05;;
58974;SDS011;44751;52.236;5.178;2022-07-23T21:12:30;5.90;;;5.20;;
58974;SDS011;44751;52.236;5.178;2022-07-23T21:14:59;5.60;;;5.10;;
58974;SDS011;44751;52.236;5.178;2022-07-23T21:17:45;7.35;;;5.18;;
58974;SDS011;44751;52.236;5.178;2022-07-23T21:20:13;6.15;;;5.55;;
58974;SDS011;44751;52.236;5.178;2022-07-23T21:22:40;5.43;;;4.90;;
58974;SDS011;44751;52.236;5.178;2022-07-23T21:25:08;6.13;;;5.18;;
58974;SDS011;44751;52.236;5.178;2022-07-23T21:27:35;6.18;;;5.57;;
58974;SDS011;44751;52.236;5.178;2022-07-23T21:30:12;6.50;;;5.90;;
58974;SDS011;44751;52.236;5.178;2022-07-23T21:32:39;7.53;;;6.72;;
58974;SDS011;44751;52.236;5.178;2022-07-23T21:35:06;7.85;;;6.55;;
58974;SDS011;44751;52.236;5.178;2022-07-23T21:37:33;7.85;;;6.60;;
58974;SDS011;44751;52.236;5.178;2022-07-23T21:40:00;7.30;;;6.57;;
58974;SDS011;44751;52.236;5.178;2022-07-23T21:42:26;7.28;;;6.57;;
58974;SDS011;44751;52.236;5.178;2022-07-23T21:44:53;6.45;;;5.85;;
58974;SDS011;44751;52.236;5.178;2022-07-23T21:47:19;8.15;;;6.60;;
58974;SDS011;44751;52.236;5.178;2022-07-23T21:49:46;7.63;;;6.93;;
58974;SDS011;44751;52.236;5.178;2022-07-23T21:52:12;7.90;;;7.20;;
58974;SDS011;44751;52.236;5.178;2022-07-23T21:54:38;9.13;;;7.28;;
58974;SDS011;44751;52.236;5.178;2022-07-23T21:57:05;7.43;;;6.68;;
58974;SDS011;44751;52.236;5.178;2022-07-23T21:59:32;8.35;;;6.63;;
58974;SDS011;44751;52.236;5.178;2022-07-23T22:01:58;7.60;;;6.88;;
58974;SDS011;44751;52.236;5.178;2022-07-23T22:04:25;7.40;;;6.70;;
58974;SDS011;44751;52.236;5.178;2022-07-23T22:06:52;7.85;;;7.05;;
58974;SDS011;44751;52.236;5.178;2022-07-23T22:09:18;7.75;;;6.95;;
58974;SDS011;44751;52.236;5.178;2022-07-23T22:11:45;8.25;;;7.00;;
58974;SDS011;44751;52.236;5.178;2022-07-23T22:14:11;10.10;;;7.30;;
58974;SDS011;44751;52.236;5.178;2022-07-23T22:16:38;7.07;;;6.38;;
58974;SDS011;44751;52.236;5.178;2022-07-23T22:19:04;8.35;;;7.38;;
58974;SDS011;44751;52.236;5.178;2022-07-23T22:21:31;7.53;;;6.72;;
58974;SDS011;44751;52.236;5.178;2022-07-23T22:23:57;8.20;;;7.40;;
58974;SDS011;44751;52.236;5.178;2022-07-23T22:26:23;9.48;;;7.47;;
58974;SDS011;44751;52.236;5.178;2022-07-23T22:28:50;9.30;;;8.32;;
58974;SDS011;44751;52.236;5.178;2022-07-23T22:31:16;8.13;;;7.32;;
58974;SDS011;44751;52.236;5.178;2022-07-23T22:33:43;8.18;;;7.20;;
58974;SDS011;44751;52.236;5.178;2022-07-23T22:36:09;11.20;;;8.25;;
58974;SDS011;44751;52.236;5.178;2022-07-23T22:38:36;9.07;;;8.10;;
58974;SDS011;44751;52.236;5.178;2022-07-23T22:41:02;10.55;;;7.97;;
58974;SDS011;44751;52.236;5.178;2022-07-23T22:43:28;7.80;;;7.00;;
58974;SDS011;44751;52.236;5.178;2022-07-23T22:45:55;7.78;;;6.97;;
58974;SDS011;44751;52.236;5.178;2022-07-23T22:48:21;8.27;;;6.93;;
58974;SDS011;44751;52.236;5.178;2022-07-23T22:50:48;9.70;;;6.63;;
58974;SDS011;44751;52.236;5.178;2022-07-23T22:53:14;6.63;;;5.85;;
58974;SDS011;44751;52.236;5.178;2022-07-23T22:55:41;9.48;;;6.60;;
58974;SDS011;44751;52.236;5.178;2022-07-23T22:58:07;7.60;;;5.40;;